Time;durP1;ratioP1;P1;durP2;ratioP2;P2;SDS_P1;SDS_P2;PMS_P1;PMS_P2;Temp;Humidity;BMP_temperature;BMP_pressure;BME280_temperature;BME280_humidity;BME280_pressure;Samples;Min_cycle;Max_cycle;Signal;HPM_P1;HPM_P2
2021/03/19 00:00:01;;;;;;;29.20;17.73;;;;;;;1.15;92.55;100483.34;2082586;28;20040;-80
2021/03/19 00:01:01;;;;;;;29.00;17.30;;;;;;;1.17;92.75;100486.78;2083444;28;20095;-80
2021/03/19 00:02:02;;;;;;;28.37;16.90;;;;;;;1.21;93.08;100485.97;2087666;28;20463;-80
2021/03/19 00:03:02;;;;;;;31.10;17.15;;;;;;;1.24;92.85;100486.00;2080509;28;20280;-79
2021/03/19 00:04:03;;;;;;;26.83;17.13;;;;;;;1.22;92.79;100483.44;2085707;28;20111;-81
2021/03/19 00:05:10;;;;;;;28.53;17.60;;;;;;;1.20;92.68;100487.69;2083731;28;20033;-80
2021/03/19 00:06:11;;;;;;;28.83;17.98;;;;;;;1.21;92.70;100479.16;2082257;28;20120;-80
2021/03/19 00:07:11;;;;;;;28.17;17.47;;;;;;;1.18;92.79;100480.78;2085673;28;20471;-79
2021/03/19 00:08:11;;;;;;;28.77;16.03;;;;;;;1.20;92.79;100479.09;2084176;28;20062;-79
2021/03/19 00:09:12;;;;;;;27.13;16.53;;;;;;;1.17;92.73;100484.22;2080498;28;20548;-80
2021/03/19 00:10:14;;;;;;;28.83;17.20;;;;;;;1.20;92.77;100477.41;2081736;28;20030;-79
2021/03/19 00:11:15;;;;;;;27.67;17.13;;;;;;;1.23;92.64;100481.72;2090103;28;20475;-79
2021/03/19 00:12:16;;;;;;;29.88;17.73;;;;;;;1.22;92.71;100487.69;2086393;28;20043;-79
2021/03/19 00:13:16;;;;;;;29.77;17.03;;;;;;;1.22;93.06;100480.88;2081328;28;20037;-79
2021/03/19 00:14:17;;;;;;;27.53;15.23;;;;;;;1.16;93.04;100478.22;2082498;28;20040;-79
2021/03/19 00:15:22;;;;;;;24.90;14.93;;;;;;;1.11;92.61;100474.72;2090174;28;20029;-78
2021/03/19 00:16:22;;;;;;;22.42;15.13;;;;;;;1.19;92.85;100473.13;2089930;28;20075;-81
2021/03/19 00:17:23;;;;;;;23.80;15.63;;;;;;;1.19;92.74;100473.13;2090041;28;20025;-76
2021/03/19 00:18:23;;;;;;;22.83;14.67;;;;;;;1.19;92.75;100473.13;2088222;28;20017;-79
2021/03/19 00:19:23;;;;;;;22.67;15.20;;;;;;;1.24;92.57;100471.47;2079982;28;20030;-80
2021/03/19 00:20:24;;;;;;;25.70;15.73;;;;;;;1.22;92.74;100482.56;2083007;28;20033;-79
2021/03/19 00:21:24;;;;;;;26.97;16.47;;;;;;;1.16;93.02;100472.22;2081791;28;20498;-78
2021/03/19 00:22:24;;;;;;;26.10;16.07;;;;;;;1.17;93.27;100479.94;2083549;28;20030;-80
2021/03/19 00:23:25;;;;;;;25.93;15.43;;;;;;;1.13;93.40;100478.16;2088546;28;20056;-80
2021/03/19 00:24:25;;;;;;;26.70;15.67;;;;;;;1.17;93.18;100471.38;2083619;28;20379;-80
2021/03/19 00:25:25;;;;;;;28.13;16.80;;;;;;;1.09;93.28;100467.00;2087271;28;20026;-79
2021/03/19 00:26:26;;;;;;;24.40;15.50;;;;;;;1.14;93.25;100473.91;2084220;28;20028;-80
2021/03/19 00:27:26;;;;;;;25.55;15.50;;;;;;;1.12;93.29;100473.00;2080725;28;20040;-79
2021/03/19 00:28:27;;;;;;;26.20;16.33;;;;;;;1.13;93.36;100473.03;2081397;28;20032;-80
2021/03/19 00:29:27;;;;;;;23.63;15.93;;;;;;;1.16;93.44;100475.63;2081322;28;20451;-80
2021/03/19 00:30:27;;;;;;;29.97;17.07;;;;;;;1.13;93.33;100465.31;2083498;28;20356;-79
2021/03/19 00:31:28;;;;;;;25.43;15.70;;;;;;;1.14;93.06;100473.91;2089768;28;20033;-79
2021/03/19 00:32:28;;;;;;;25.00;15.03;;;;;;;1.12;93.28;100463.63;2082346;28;20670;-80
2021/03/19 00:33:28;;;;;;;42.17;25.60;;;;;;;1.13;93.24;100469.59;2081457;28;20550;-77
2021/03/19 00:34:29;;;;;;;27.90;16.93;;;;;;;1.14;93.63;100464.47;2081142;28;20052;-79
2021/03/19 00:35:29;;;;;;;26.43;15.63;;;;;;;1.13;93.35;100462.75;2077054;28;20074;-77
2021/03/19 00:36:29;;;;;;;27.37;16.43;;;;;;;1.13;93.36;100467.88;2079495;28;20080;-80
2021/03/19 00:37:30;;;;;;;28.30;17.20;;;;;;;1.12;93.58;100466.19;2084048;28;20033;-79
2021/03/19 00:38:30;;;;;;;30.93;16.73;;;;;;;1.15;93.76;100463.63;2083434;28;20057;-79
2021/03/19 00:39:30;;;;;;;24.93;15.87;;;;;;;1.07;93.25;100462.69;2081281;28;20075;-80
2021/03/19 00:40:31;;;;;;;24.43;16.10;;;;;;;1.09;93.24;100461.84;2084198;28;20575;-78
2021/03/19 00:41:32;;;;;;;27.02;16.55;;;;;;;1.02;93.36;100461.78;2080582;28;20036;-78
2021/03/19 00:42:32;;;;;;;25.75;16.27;;;;;;;1.07;93.30;100462.69;2076454;28;20037;-79
2021/03/19 00:43:33;;;;;;;24.20;15.55;;;;;;;1.06;93.39;100460.97;2081715;28;20112;-82
2021/03/19 00:44:33;;;;;;;25.83;15.73;;;;;;;1.06;93.27;100461.84;2084744;28;20032;-82
2021/03/19 00:45:33;;;;;;;24.20;15.63;;;;;;;1.04;93.59;100452.38;2089867;28;20036;-81
2021/03/19 00:46:33;;;;;;;25.20;16.30;;;;;;;1.04;93.60;100457.50;2082717;28;20033;-81
2021/03/19 00:47:34;;;;;;;23.67;15.47;;;;;;;1.03;93.48;100451.53;2081469;28;20029;-79
2021/03/19 00:48:34;;;;;;;24.63;15.87;;;;;;;1.03;93.36;100453.25;2084796;28;20024;-80
2021/03/19 00:49:35;;;;;;;25.60;16.63;;;;;;;1.03;93.42;100459.22;2085915;28;20029;-80
2021/03/19 00:50:39;;;;;;;25.83;16.13;;;;;;;1.05;93.65;100454.09;2082568;28;20021;-80
2021/03/19 00:51:39;;;;;;;24.30;14.98;;;;;;;0.96;93.39;100446.28;2081207;28;20777;-78
2021/03/19 00:52:40;;;;;;;23.77;15.53;;;;;;;1.07;93.11;100447.28;2086205;28;20017;-78
2021/03/19 00:53:40;;;;;;;26.08;15.80;;;;;;;1.03;93.28;100455.81;2089627;28;20071;-79
2021/03/19 00:54:41;;;;;;;23.93;14.50;;;;;;;1.01;93.30;100454.91;2085656;28;20107;-78
2021/03/19 00:55:41;;;;;;;23.33;15.47;;;;;;;0.93;93.16;100452.25;2081412;28;20033;-78
2021/03/19 00:56:41;;;;;;;25.17;15.70;;;;;;;0.91;93.24;100453.91;2081695;28;20037;-78
2021/03/19 00:57:42;;;;;;;24.03;15.97;;;;;;;0.95;93.43;100448.00;2081376;28;20056;-78
2021/03/19 00:58:42;;;;;;;24.37;15.30;;;;;;;0.96;93.35;100447.16;2082470;28;20101;-78
2021/03/19 00:59:42;;;;;;;22.47;14.50;;;;;;;0.97;93.59;100456.59;2080580;28;20045;-78
2021/03/19 01:00:43;;;;;;;24.17;15.07;;;;;;;0.87;93.14;100445.31;2080891;28;20492;-78
2021/03/19 01:01:43;;;;;;;24.73;16.30;;;;;;;0.88;93.29;100447.06;2081247;28;20044;-78
2021/03/19 01:02:43;;;;;;;24.73;14.87;;;;;;;0.89;93.54;100447.91;2085782;28;20112;-78
2021/03/19 01:03:44;;;;;;;25.50;15.80;;;;;;;0.87;93.47;100447.88;2082632;28;20117;-77
2021/03/19 01:04:44;;;;;;;24.03;14.37;;;;;;;0.90;93.44;100449.63;2074802;28;20033;-78
2021/03/19 01:05:45;;;;;;;21.33;14.80;;;;;;;0.91;93.04;100446.22;2076486;28;20030;-79
2021/03/19 01:06:46;;;;;;;22.15;15.00;;;;;;;0.88;93.15;100446.19;2080957;28;20033;-78
2021/03/19 01:07:46;;;;;;;22.60;14.90;;;;;;;0.88;93.32;100447.06;2081452;28;20049;-78
2021/03/19 01:08:47;;;;;;;25.15;15.85;;;;;;;0.84;93.44;100452.97;2086148;28;20429;-78
2021/03/19 01:09:47;;;;;;;22.77;15.97;;;;;;;0.85;93.46;100453.84;2089354;28;20051;-78
2021/03/19 01:10:51;;;;;;;23.53;16.07;;;;;;;0.77;93.42;100451.16;2084550;28;20052;-79
2021/03/19 01:11:51;;;;;;;24.20;16.70;;;;;;;0.77;93.74;100449.47;2081443;28;20033;-78
2021/03/19 01:12:52;;;;;;;25.63;15.93;;;;;;;0.82;93.42;100458.94;2080479;28;20029;-81
2021/03/19 01:13:53;;;;;;;27.20;16.43;;;;;;;0.87;93.59;100459.88;2076651;28;20022;-79
2021/03/19 01:14:53;;;;;;;23.67;15.48;;;;;;;0.88;93.58;100457.31;2076857;28;20393;-80
2021/03/19 01:15:55;;;;;;;27.60;16.57;;;;;;;0.86;93.59;100463.28;2078763;28;20413;-81
2021/03/19 01:16:55;;;;;;;26.25;15.73;;;;;;;0.86;93.68;100458.13;2084307;28;20021;-81
2021/03/19 01:17:55;;;;;;;28.97;16.90;;;;;;;0.86;93.44;100459.00;2088267;28;20020;-80
2021/03/19 01:18:56;;;;;;;25.87;16.37;;;;;;;0.86;93.92;100453.84;2081078;28;21210;-80
2021/03/19 01:19:56;;;;;;;24.03;16.17;;;;;;;0.81;93.41;100460.66;2081088;28;20486;-80
2021/03/19 01:20:56;;;;;;;23.93;15.97;;;;;;;0.74;93.21;100464.81;2080722;28;20100;-80
2021/03/19 01:21:56;;;;;;;24.07;15.83;;;;;;;0.78;93.21;100466.56;2081366;28;20100;-80
2021/03/19 01:22:57;;;;;;;25.67;16.00;;;;;;;0.78;93.55;100465.72;2082303;28;20506;-80
2021/03/19 01:23:57;;;;;;;24.33;16.40;;;;;;;0.83;93.50;100461.53;2086292;28;20112;-80
2021/03/19 01:24:58;;;;;;;28.23;16.57;;;;;;;0.83;93.63;100458.09;2079170;28;20060;-80
2021/03/19 01:25:58;;;;;;;24.03;15.60;;;;;;;0.85;93.19;100457.25;2079808;28;20037;-80
2021/03/19 01:26:58;;;;;;;24.37;15.90;;;;;;;0.80;93.19;100466.63;2086517;28;20029;-80
2021/03/19 01:27:59;;;;;;;23.67;15.93;;;;;;;0.83;93.07;100461.53;2081312;28;20303;-80
2021/03/19 01:28:59;;;;;;;22.83;16.30;;;;;;;0.83;93.32;100469.22;2083980;28;20029;-80
2021/03/19 01:30:00;;;;;;;23.90;15.87;;;;;;;0.85;93.32;100461.53;2080808;28;20029;-80
2021/03/19 01:31:01;;;;;;;25.70;16.23;;;;;;;0.85;93.11;100461.53;2085121;28;20091;-79
2021/03/19 01:32:02;;;;;;;24.80;15.75;;;;;;;0.83;93.31;100464.09;2081152;28;20303;-80
2021/03/19 01:33:04;;;;;;;22.73;15.45;;;;;;;0.85;93.20;100464.97;2072343;28;20492;-80
2021/03/19 01:34:04;;;;;;;27.80;16.67;;;;;;;0.85;93.31;100462.41;2072647;28;20064;-80
2021/03/19 01:35:06;;;;;;;24.90;15.80;;;;;;;0.85;93.49;100457.25;2080393;28;20033;-80
2021/03/19 01:36:07;;;;;;;28.75;16.45;;;;;;;0.87;93.49;100455.59;2088240;28;20025;-82
2021/03/19 01:37:07;;;;;;;24.67;15.90;;;;;;;0.84;93.42;100455.53;2089478;28;20040;-83
2021/03/19 01:38:11;;;;;;;25.80;15.80;;;;;;;0.83;93.38;100451.28;2088545;28;20028;-80
2021/03/19 01:39:12;;;;;;;25.98;15.65;;;;;;;0.82;93.24;100446.97;2087319;28;20115;-82
2021/03/19 01:40:14;;;;;;;26.77;15.97;;;;;;;0.79;93.54;100441.78;2081629;28;20033;-81
2021/03/19 01:41:14;;;;;;;26.30;16.40;;;;;;;0.84;93.52;100442.69;2081140;28;20034;-81
2021/03/19 01:42:14;;;;;;;25.00;16.20;;;;;;;0.85;93.22;100439.31;2081144;28;20438;-82
2021/03/19 01:43:47;;;;;;;22.53;14.73;;;;;;;0.90;93.05;100441.94;2081068;28;20025;-81
2021/03/19 01:45:25;;;;;;;23.13;15.25;;;;;;;0.81;93.15;100437.56;2059312;28;20035;-80
2021/03/19 01:47:02;;;;;;;22.52;14.75;;;;;;;0.74;93.07;100431.47;2077945;28;20067;-80
2021/03/19 01:48:40;;;;;;;24.42;15.38;;;;;;;0.75;93.34;100434.88;2081277;28;20380;-80
2021/03/19 01:50:18;;;;;;;23.80;15.13;;;;;;;0.76;93.49;100431.47;2085096;28;20027;-82
2021/03/19 01:51:55;;;;;;;28.63;15.60;;;;;;;0.77;93.27;100430.63;2076981;28;20033;-79
2021/03/19 01:53:33;;;;;;;24.98;15.35;;;;;;;0.74;93.62;100428.03;2080868;28;20510;-79
2021/03/19 01:55:11;;;;;;;24.83;14.30;;;;;;;0.74;93.88;100426.34;2087060;28;20029;-80
2021/03/19 01:56:48;;;;;;;22.70;14.40;;;;;;;0.68;93.59;100427.94;2085754;28;20045;-81
2021/03/19 01:58:37;;;;;;;21.40;14.75;;;;;;;0.67;93.80;100428.78;2090555;28;20025;-80
2021/03/19 02:00:15;;;;;;;22.60;14.18;;;;;;;0.61;93.73;100438.13;2056407;28;20331;-80
2021/03/19 02:01:52;;;;;;;23.88;14.95;;;;;;;0.64;93.98;100431.34;2069437;28;20033;-80
2021/03/19 02:03:30;;;;;;;23.63;15.70;;;;;;;0.63;93.69;100430.44;2068905;28;20100;-80
2021/03/19 02:05:08;;;;;;;25.05;15.43;;;;;;;0.67;94.02;100433.91;2077316;28;20028;-80
2021/03/19 02:06:46;;;;;;;23.98;15.15;;;;;;;0.68;93.87;100439.09;2080995;28;20033;-78
2021/03/19 02:08:23;;;;;;;24.25;14.88;;;;;;;0.70;94.07;100444.22;2080615;28;20052;-74
2021/03/19 02:10:01;;;;;;;26.60;15.85;;;;;;;0.70;94.32;100432.25;2086293;28;20544;-74
2021/03/19 02:11:39;;;;;;;25.70;15.05;;;;;;;0.75;94.13;100429.75;2072376;28;20125;-74
2021/03/19 02:13:17;;;;;;;24.02;15.13;;;;;;;0.71;94.10;100433.13;2077511;28;20018;-74
2021/03/19 02:14:54;;;;;;;22.63;14.40;;;;;;;0.71;93.95;100428.84;2084615;28;20071;-74
2021/03/19 02:16:32;;;;;;;24.85;15.57;;;;;;;0.70;93.62;100432.25;2087261;28;20013;-73
2021/03/19 02:18:09;;;;;;;25.55;16.35;;;;;;;0.61;93.90;100437.25;2082798;28;20468;-76
2021/03/19 02:19:47;;;;;;;25.95;15.90;;;;;;;0.59;94.07;100433.81;2080699;28;20033;-75
2021/03/19 02:21:25;;;;;;;28.13;16.75;;;;;;;0.58;94.04;100439.81;2081130;28;20017;-75
2021/03/19 02:23:03;;;;;;;26.40;16.10;;;;;;;0.61;94.00;100438.13;2081230;28;20361;-75
2021/03/19 02:24:40;;;;;;;24.08;15.73;;;;;;;0.58;94.22;100432.09;2082547;28;20087;-75
2021/03/19 02:26:18;;;;;;;23.88;15.02;;;;;;;0.65;94.32;100427.91;2081555;28;20021;-75
2021/03/19 02:27:56;;;;;;;27.00;15.93;;;;;;;0.63;94.23;100429.59;2080941;28;20033;-74
2021/03/19 02:29:34;;;;;;;26.60;16.38;;;;;;;0.70;94.65;100418.56;2085618;28;20048;-75
2021/03/19 02:31:14;;;;;;;24.38;14.77;;;;;;;0.69;94.27;100425.41;2079811;28;20021;-75
2021/03/19 02:32:17;;;;;;;26.27;15.52;;;;;;;0.73;94.22;100421.19;2081511;28;20017;-78
2021/03/19 02:33:17;;;;;;;28.02;16.60;;;;;;;0.71;94.23;100425.44;2080253;28;20565;-78
2021/03/19 02:34:17;;;;;;;28.97;16.50;;;;;;;0.74;94.25;100422.88;2072062;28;20051;-79
2021/03/19 02:35:21;;;;;;;28.93;17.20;;;;;;;0.74;94.56;100418.63;2072281;28;20033;-79
2021/03/19 02:36:25;;;;;;;26.10;16.95;;;;;;;0.69;94.34;100419.41;2080620;28;20052;-77
2021/03/19 02:37:28;;;;;;;26.23;16.95;;;;;;;0.70;94.23;100418.56;2084402;28;20037;-76
2021/03/19 02:38:29;;;;;;;25.63;15.70;;;;;;;0.71;94.10;100420.31;2081310;28;20029;-76
2021/03/19 02:39:29;;;;;;;26.37;16.47;;;;;;;0.59;94.20;100416.72;2073546;28;20065;-77
2021/03/19 02:40:29;;;;;;;26.07;16.43;;;;;;;0.67;94.65;100423.66;2076231;28;20102;-77
2021/03/19 02:41:30;;;;;;;29.13;18.27;;;;;;;0.69;94.57;100419.41;2083189;28;20460;-78
2021/03/19 02:42:31;;;;;;;26.33;15.70;;;;;;;0.71;94.68;100422.88;2086904;28;20021;-77
2021/03/19 02:43:32;;;;;;;25.52;16.38;;;;;;;0.70;94.63;100421.16;2082914;28;20472;-77
2021/03/19 02:44:33;;;;;;;25.92;17.33;;;;;;;0.73;94.62;100418.63;2080651;28;20083;-78
2021/03/19 02:45:33;;;;;;;25.50;17.02;;;;;;;0.75;94.60;100419.50;2084847;28;20467;-79
2021/03/19 02:46:34;;;;;;;28.33;18.57;;;;;;;0.73;94.69;100422.03;2080170;28;20468;-77
2021/03/19 02:47:35;;;;;;;31.38;17.80;;;;;;;0.77;94.84;100423.81;2081241;28;20017;-77
2021/03/19 02:48:35;;;;;;;29.40;17.80;;;;;;;0.80;95.02;100428.13;2087573;28;20040;-76
2021/03/19 02:49:36;;;;;;;28.63;17.45;;;;;;;0.80;94.74;100425.56;2082167;28;20368;-76
2021/03/19 02:50:37;;;;;;;28.37;17.90;;;;;;;0.80;94.63;100435.81;2080774;28;20026;-75
2021/03/19 02:51:37;;;;;;;28.35;17.63;;;;;;;0.82;94.67;100423.00;2080957;28;20029;-76
2021/03/19 02:52:41;;;;;;;29.47;18.43;;;;;;;0.85;94.81;100429.03;2080721;28;20060;-76
2021/03/19 02:53:41;;;;;;;30.10;18.20;;;;;;;0.84;94.96;100429.03;2080782;28;20036;-78
2021/03/19 02:54:41;;;;;;;30.40;18.60;;;;;;;0.85;95.00;100423.91;2083754;28;20061;-77
2021/03/19 02:55:42;;;;;;;26.73;17.90;;;;;;;0.86;95.02;100417.94;2084925;28;20078;-78
2021/03/19 02:56:42;;;;;;;28.43;17.83;;;;;;;0.87;94.83;100422.22;2084580;28;20018;-78
2021/03/19 02:57:42;;;;;;;28.73;18.83;;;;;;;0.83;94.76;100420.47;2084963;28;20511;-77
2021/03/19 02:58:43;;;;;;;26.95;18.45;;;;;;;0.88;94.93;100426.53;2083890;28;20039;-77
2021/03/19 02:59:43;;;;;;;28.00;17.37;;;;;;;0.86;94.59;100420.50;2086993;28;20059;-75
2021/03/19 03:00:44;;;;;;;29.27;18.93;;;;;;;0.86;94.54;100422.22;2077257;28;20022;-76
2021/03/19 03:01:46;;;;;;;25.83;17.48;;;;;;;0.75;94.55;100424.63;2073548;28;20037;-74
2021/03/19 03:02:47;;;;;;;27.70;17.77;;;;;;;0.80;94.49;100420.44;2082282;28;20490;-74
2021/03/19 03:03:47;;;;;;;27.00;18.33;;;;;;;0.81;94.71;100424.72;2077337;28;20037;-74
2021/03/19 03:04:47;;;;;;;27.57;17.23;;;;;;;0.78;94.41;100425.53;2073530;28;20073;-75
2021/03/19 03:05:48;;;;;;;25.87;17.57;;;;;;;0.82;94.30;100423.88;2085707;28;20510;-75
2021/03/19 03:06:52;;;;;;;25.08;17.50;;;;;;;0.80;94.25;100428.13;2082211;28;20044;-75
2021/03/19 03:07:52;;;;;;;25.13;16.58;;;;;;;0.74;93.92;100423.78;2074975;28;20125;-75
2021/03/19 03:08:53;;;;;;;28.23;18.53;;;;;;;0.80;94.14;100427.25;2073512;28;20516;-74
2021/03/19 03:09:54;;;;;;;27.42;17.58;;;;;;;0.83;94.26;100428.19;2082122;28;20021;-74
2021/03/19 03:10:55;;;;;;;27.92;17.55;;;;;;;0.85;94.57;100418.78;2080940;28;20037;-75
2021/03/19 03:11:55;;;;;;;26.42;18.85;;;;;;;0.87;94.59;100417.09;2081636;28;20038;-77
2021/03/19 03:12:56;;;;;;;30.83;18.83;;;;;;;0.76;94.15;100416.97;2082392;28;20029;-75
2021/03/19 03:13:57;;;;;;;27.08;18.02;;;;;;;0.79;94.43;100421.28;2078007;28;20317;-76
2021/03/19 03:14:57;;;;;;;25.13;17.87;;;;;;;0.84;94.33;100419.59;2076556;28;20507;-79
2021/03/19 03:15:57;;;;;;;28.13;17.77;;;;;;;0.85;94.34;100420.50;2078199;28;20060;-76
2021/03/19 03:17:00;;;;;;;26.97;18.50;;;;;;;0.88;94.44;100425.66;2081660;28;20022;-77
2021/03/19 03:18:00;;;;;;;26.55;18.40;;;;;;;0.88;94.45;100425.66;2082208;28;20026;-76
2021/03/19 03:19:02;;;;;;;28.07;19.17;;;;;;;0.83;94.61;100423.03;2084260;28;20095;-76
2021/03/19 03:20:04;;;;;;;;;;;;;;;0.85;94.96;100416.19;2089834;28;20039;-75
2021/03/19 03:21:04;;;;;;;31.38;18.83;;;;;;;0.84;95.04;100418.75;2090694;28;20502;-76
2021/03/19 03:22:06;;;;;;;27.55;18.48;;;;;;;0.84;95.06;100414.47;2086938;28;20112;-79
2021/03/19 03:23:07;;;;;;;;;;;;;;;0.86;95.07;100423.06;2081780;28;20041;-76
2021/03/19 03:24:08;;;;;;;29.90;19.38;;;;;;;0.87;95.18;100416.25;2073312;28;20419;-75
2021/03/19 03:25:13;;;;;;;33.25;19.27;;;;;;;0.86;95.16;100417.94;2081744;28;20433;-75
2021/03/19 03:26:14;;;;;;;30.52;19.63;;;;;;;0.88;95.38;100423.09;2090353;28;20112;-76
2021/03/19 03:27:14;;;;;;;30.07;19.03;;;;;;;0.87;95.02;100423.94;2090462;28;20487;-76
2021/03/19 03:28:16;;;;;;;31.03;19.43;;;;;;;0.90;95.35;100419.72;2090380;28;20071;-76
2021/03/19 03:29:20;;;;;;;29.15;18.35;;;;;;;0.92;95.49;100427.41;2087842;28;20100;-75
2021/03/19 03:30:33;;;;;;;30.60;18.48;;;;;;;0.90;95.06;100427.41;2078617;28;20064;-76
2021/03/19 03:31:34;;;;;;;27.13;17.33;;;;;;;0.83;94.93;100429.88;2077728;28;20030;-76
2021/03/19 03:32:35;;;;;;;26.60;16.67;;;;;;;0.88;94.75;100425.66;2084463;28;20036;-75
2021/03/19 03:33:35;;;;;;;22.35;16.13;;;;;;;0.89;94.73;100427.38;2084956;28;20068;-76
2021/03/19 03:34:36;;;;;;;24.80;16.43;;;;;;;0.87;94.44;100429.06;2086092;28;20498;-75
2021/03/19 03:35:37;;;;;;;25.50;16.57;;;;;;;0.84;94.54;100423.88;2081806;28;20057;-76
2021/03/19 03:36:39;;;;;;;26.02;17.63;;;;;;;0.85;94.30;100426.47;2082045;28;20435;-76
2021/03/19 03:37:39;;;;;;;24.63;16.85;;;;;;;0.87;94.38;100419.66;2082118;28;20037;-76
2021/03/19 03:38:40;;;;;;;29.17;17.43;;;;;;;0.89;94.38;100424.81;2082024;28;20017;-76
2021/03/19 03:39:40;;;;;;;29.17;18.77;;;;;;;0.91;94.70;100424.00;2081990;28;20029;-76
2021/03/19 03:40:46;;;;;;;30.77;18.50;;;;;;;0.92;94.70;100427.41;2082155;28;20368;-75
2021/03/19 03:41:47;;;;;;;30.05;18.25;;;;;;;0.94;94.76;100430.88;2082157;28;20021;-76
2021/03/19 03:42:47;;;;;;;28.80;18.23;;;;;;;0.95;94.80;100431.72;2082031;28;20452;-75
2021/03/19 03:43:47;;;;;;;27.27;18.03;;;;;;;0.92;94.64;100428.28;2088984;28;20441;-76
2021/03/19 03:44:48;;;;;;;27.00;17.80;;;;;;;0.92;94.84;100433.44;2090241;28;20509;-76
2021/03/19 03:45:49;;;;;;;26.27;16.97;;;;;;;0.95;94.89;100426.59;2090605;28;20364;-76
2021/03/19 03:46:49;;;;;;;27.45;17.67;;;;;;;0.95;94.86;100421.44;2088055;28;20036;-76
2021/03/19 03:47:50;;;;;;;26.15;17.45;;;;;;;0.92;94.88;100425.72;2089775;28;20048;-76
2021/03/19 03:48:51;;;;;;;25.27;16.83;;;;;;;0.93;94.72;100431.72;2082519;28;20496;-76
2021/03/19 03:49:51;;;;;;;26.48;18.38;;;;;;;0.96;94.79;100429.19;2083816;28;20018;-76
2021/03/19 03:50:52;;;;;;;25.63;17.40;;;;;;;0.93;94.66;100426.56;2089338;28;20063;-76
2021/03/19 03:51:53;;;;;;;27.00;17.65;;;;;;;0.97;94.82;100430.03;2083018;28;20033;-76
2021/03/19 03:52:53;;;;;;;24.93;17.33;;;;;;;0.98;94.79;100426.63;2090210;28;20028;-75
2021/03/19 03:53:56;;;;;;;27.10;18.13;;;;;;;0.98;94.62;100430.03;2089499;28;20383;-76
2021/03/19 03:54:56;;;;;;;26.27;17.98;;;;;;;0.96;94.41;100428.31;2089957;28;20021;-76
2021/03/19 03:55:57;;;;;;;25.97;17.53;;;;;;;0.96;94.55;100426.63;2090415;28;20016;-76
2021/03/19 03:56:57;;;;;;;25.90;17.13;;;;;;;0.94;94.28;100430.88;2090049;28;20013;-76
2021/03/19 03:57:58;;;;;;;24.20;17.07;;;;;;;0.93;94.18;100432.56;2090305;28;20029;-76
2021/03/19 03:58:58;;;;;;;28.93;19.00;;;;;;;0.96;94.35;100434.31;2089980;28;20025;-76
2021/03/19 03:59:58;;;;;;;24.70;17.17;;;;;;;0.96;94.31;100434.31;2080765;28;20025;-75
2021/03/19 04:00:59;;;;;;;25.93;17.87;;;;;;;0.95;94.31;100437.72;2080990;28;20129;-76
2021/03/19 04:02:18;;;;;;;25.60;16.83;;;;;;;0.98;94.32;100436.91;2089874;28;20383;-76
2021/03/19 04:03:19;;;;;;;22.92;16.90;;;;;;;0.97;94.39;100435.16;2079944;28;20038;-76
2021/03/19 04:04:19;;;;;;;25.77;17.35;;;;;;;0.97;94.38;100424.91;2076724;28;20392;-76
2021/03/19 04:05:24;;;;;;;25.87;17.27;;;;;;;0.98;94.59;100431.78;2082097;28;20116;-76
2021/03/19 04:06:25;;;;;;;27.88;18.65;;;;;;;0.99;94.70;100433.50;2082567;28;20444;-76
2021/03/19 04:07:25;;;;;;;26.40;17.50;;;;;;;0.99;94.60;100425.78;2081695;28;20028;-76
2021/03/19 04:08:28;;;;;;;25.07;17.90;;;;;;;0.99;94.50;100430.94;2085617;28;20028;-76
2021/03/19 04:09:28;;;;;;;25.80;16.83;;;;;;;0.99;94.37;100433.50;2080909;28;20032;-76
2021/03/19 04:10:28;;;;;;;29.30;18.30;;;;;;;0.99;94.42;100430.94;2081009;28;20116;-76
2021/03/19 04:11:29;;;;;;;25.70;17.63;;;;;;;1.00;94.28;100436.06;2089993;28;20035;-76
2021/03/19 04:12:29;;;;;;;26.40;17.73;;;;;;;0.99;94.45;100433.50;2090164;28;20115;-76
2021/03/19 04:13:31;;;;;;;28.43;17.83;;;;;;;0.99;94.33;100429.22;2090153;28;20056;-76
2021/03/19 04:14:31;;;;;;;26.67;17.60;;;;;;;0.99;94.43;100430.94;2090394;28;20029;-76
2021/03/19 04:15:32;;;;;;;27.57;18.73;;;;;;;0.99;94.48;100436.06;2086225;28;20471;-76
2021/03/19 04:16:32;;;;;;;25.25;17.02;;;;;;;1.01;94.52;100435.22;2081945;28;20036;-76
2021/03/19 04:17:33;;;;;;;26.17;17.90;;;;;;;1.02;94.47;100438.69;2073104;28;20026;-76
2021/03/19 04:18:34;;;;;;;27.02;18.13;;;;;;;1.02;94.56;100434.41;2073047;28;20037;-76
2021/03/19 04:19:35;;;;;;;27.95;18.42;;;;;;;1.02;94.62;100433.53;2081587;28;20022;-76
2021/03/19 04:20:36;;;;;;;27.08;18.52;;;;;;;1.04;94.67;100430.16;2088487;28;20021;-76
2021/03/19 04:21:37;;;;;;;27.30;19.00;;;;;;;1.06;94.51;100435.28;2082818;28;20495;-76
2021/03/19 04:22:39;;;;;;;28.98;19.48;;;;;;;1.06;94.76;100435.28;2080260;28;20037;-76
2021/03/19 04:23:47;;;;;;;25.95;18.13;;;;;;;0.97;94.55;100437.75;2081272;28;20033;-76
2021/03/19 04:24:48;;;;;;;25.63;17.58;;;;;;;1.01;94.43;100431.81;2074310;28;20362;-76
2021/03/19 04:25:49;;;;;;;26.48;18.08;;;;;;;1.00;94.33;100432.66;2081277;28;20388;-76
2021/03/19 04:26:49;;;;;;;27.53;18.37;;;;;;;1.01;94.27;100432.66;2081004;28;20039;-76
2021/03/19 04:27:55;;;;;;;23.70;17.90;;;;;;;0.98;94.20;100429.19;2072984;28;20022;-76
2021/03/19 04:28:56;;;;;;;25.88;17.33;;;;;;;1.00;94.18;100430.09;2081932;28;20027;-76
2021/03/19 04:29:57;;;;;;;29.03;19.50;;;;;;;1.01;94.34;100430.09;2088551;28;20025;-76
2021/03/19 04:30:57;;;;;;;27.60;17.98;;;;;;;1.02;94.37;100431.81;2081693;28;20384;-76
2021/03/19 04:31:58;;;;;;;27.97;19.00;;;;;;;1.03;94.54;100430.13;2081921;28;20036;-76
2021/03/19 04:32:59;;;;;;;27.80;18.50;;;;;;;1.03;94.32;100432.72;2081677;28;20047;-76
2021/03/19 04:34:00;;;;;;;29.10;19.20;;;;;;;1.02;94.45;100436.97;2081804;28;20025;-76
2021/03/19 04:35:00;;;;;;;29.87;19.87;;;;;;;1.04;94.72;100434.41;2081617;28;20021;-76
2021/03/19 04:36:30;;;;;;;28.93;19.00;;;;;;;1.05;94.60;100438.69;2081637;28;20388;-76
2021/03/19 04:37:31;;;;;;;26.58;17.85;;;;;;;1.01;94.58;100434.38;2081726;28;20021;-76
2021/03/19 04:38:31;;;;;;;28.83;19.05;;;;;;;1.06;94.56;100440.41;2081669;28;20029;-76
2021/03/19 04:39:33;;;;;;;28.97;19.13;;;;;;;1.01;94.34;100442.94;2081496;28;20112;-76
2021/03/19 04:40:34;;;;;;;;;;;;;;;1.04;94.33;100442.09;2087123;28;20391;-76
2021/03/19 04:41:35;;;;;;;29.15;18.45;;;;;;;1.04;94.46;100442.09;2089890;28;19934;-76
2021/03/19 04:42:35;;;;;;;28.87;19.03;;;;;;;1.03;94.38;100445.53;2089924;28;20032;-75
2021/03/19 04:43:36;;;;;;;28.03;18.80;;;;;;;1.04;94.38;100442.09;2089827;28;20021;-76
2021/03/19 04:44:42;;;;;;;27.40;18.90;;;;;;;1.05;94.40;100443.81;2089937;28;20036;-76
2021/03/19 04:45:45;;;;;;;29.27;19.13;;;;;;;1.06;94.61;100440.41;2089775;28;20021;-75
2021/03/19 04:46:45;;;;;;;28.52;19.58;;;;;;;1.06;94.75;100450.69;2089687;28;20024;-76
2021/03/19 04:47:45;;;;;;;31.07;19.73;;;;;;;1.03;94.89;100445.53;2080907;28;20045;-76
2021/03/19 04:48:46;;;;;;;26.90;18.90;;;;;;;1.06;94.97;100440.41;2081043;28;20132;-76
2021/03/19 04:49:46;;;;;;;30.37;19.93;;;;;;;1.07;94.76;100452.41;2084014;28;20025;-76
2021/03/19 04:50:46;;;;;;;29.50;18.57;;;;;;;1.04;94.75;100449.81;2089029;28;20422;-75
2021/03/19 04:51:46;;;;;;;29.77;18.67;;;;;;;1.02;94.88;100451.50;2081611;28;20033;-76
2021/03/19 04:52:47;;;;;;;29.53;19.70;;;;;;;0.96;94.92;100452.28;2089902;28;20033;-76
2021/03/19 04:53:47;;;;;;;27.50;18.90;;;;;;;1.03;94.82;100450.69;2089793;28;20367;-76
2021/03/19 04:54:48;;;;;;;27.50;18.67;;;;;;;1.05;94.68;100451.53;2089100;28;20486;-75
2021/03/19 04:55:49;;;;;;;29.37;18.70;;;;;;;1.05;94.68;100452.41;2081487;28;20026;-76
2021/03/19 04:56:49;;;;;;;29.27;19.83;;;;;;;1.08;94.48;100460.13;2081492;28;20283;-76
2021/03/19 04:57:50;;;;;;;28.40;19.90;;;;;;;0.98;94.81;100448.00;2081494;28;20444;-76
2021/03/19 04:58:52;;;;;;;31.75;20.05;;;;;;;0.99;94.92;100454.03;2081584;28;20118;-76